Time;durP1;ratioP1;P1;durP2;ratioP2;P2;SDS_P1;SDS_P2;PMS_P1;PMS_P2;Temp;Humidity;BMP_temperature;BMP_pressure;BME280_temperature;BME280_humidity;BME280_pressure;Samples;Min_cycle;Max_cycle;Signal;HPM_P1;HPM_P2
2021/05/21 10:06:04;;;;;;;1.42;0.82;;;;;;;17.66;47.17;99277.15;1573939;90;22400;-78
2021/05/21 10:52:24;;;;;;;1.15;0.72;;;;;;;17.71;44.18;99262.90;1684482;84;21079;-74
2021/05/21 10:54:51;;;;;;;0.88;0.80;;;;;;;17.70;43.07;99266.06;1655175;85;21577;-78
2021/05/21 10:57:21;;;;;;;1.82;0.78;;;;;;;17.61;43.68;99263.53;1682589;85;21056;-80
2021/05/21 11:00:00;;;;;;;5.53;0.65;;;;;;;17.63;44.74;99266.18;1721534;82;21011;-79
2021/05/21 11:02:49;;;;;;;8.13;1.57;;;;;;;17.75;44.47;99267.95;1719417;82;21107;-77
2021/05/21 11:05:37;;;;;;;1.47;1.00;;;;;;;17.94;45.53;99263.44;1718644;82;20991;-76
2021/05/21 11:08:10;;;;;;;17.75;2.40;;;;;;;18.22;45.61;99264.23;1692976;84;21055;-75
2021/05/21 11:10:42;;;;;;;2.40;0.53;;;;;;;18.39;43.24;99264.22;1694398;83;21078;-74
2021/05/21 11:13:16;;;;;;;4.87;0.80;;;;;;;18.44;43.67;99254.73;1691029;84;21035;-80
2021/05/21 11:15:48;;;;;;;3.83;0.90;;;;;;;18.55;44.00;99257.62;1690753;84;21794;-77
2021/05/21 11:18:23;;;;;;;3.75;0.60;;;;;;;18.72;43.61;99252.03;1691718;84;21106;-76
2021/05/21 11:21:12;;;;;;;3.50;0.90;;;;;;;18.82;41.72;99260.30;1686725;84;21083;-79
2021/05/21 11:23:53;;;;;;;1.60;0.60;;;;;;;18.92;41.88;99263.80;1693495;84;21066;-78
2021/05/21 11:26:25;;;;;;;2.77;0.72;;;;;;;19.05;42.59;99262.13;1652802;86;21024;-80
2021/05/21 11:29:03;;;;;;;0.95;0.53;;;;;;;19.16;44.28;99260.26;1691061;84;21124;-78
2021/05/21 11:31:31;;;;;;;3.00;0.90;;;;;;;19.24;42.08;99254.75;1687665;84;21082;-73
2021/05/21 11:34:02;;;;;;;2.33;0.93;;;;;;;19.24;42.24;99263.13;1686726;84;21061;-78
2021/05/21 11:36:33;;;;;;;5.28;0.85;;;;;;;19.16;41.36;99270.03;1653112;86;21150;-80
2021/05/21 11:39:02;;;;;;;1.77;0.60;;;;;;;18.93;40.69;99261.23;1666536;85;21558;-77
2021/05/21 11:41:38;;;;;;;4.25;1.37;;;;;;;18.80;42.05;99255.72;1665651;84;21142;-83
2021/05/21 11:44:10;;;;;;;0.90;0.68;;;;;;;18.89;41.23;99256.78;1689583;84;21113;-78
2021/05/21 11:46:38;;;;;;;5.25;0.75;;;;;;;19.00;39.56;99263.88;1654396;85;21579;-75
2021/05/21 11:49:23;;;;;;;6.97;0.70;;;;;;;19.09;39.67;99265.73;1690372;84;21113;-77
2021/05/21 11:52:02;;;;;;;6.15;1.27;;;;;;;19.23;40.46;99264.33;1693742;84;21019;-78
2021/05/21 11:54:35;;;;;;;1.10;0.80;;;;;;;19.37;40.60;99270.02;1691232;84;21265;-76
2021/05/21 11:57:02;;;;;;;3.45;0.60;;;;;;;19.34;38.96;99270.17;1691297;84;21099;-77
2021/05/21 11:59:29;;;;;;;1.90;0.60;;;;;;;19.42;38.26;99265.47;1690778;84;21046;-76
2021/05/21 12:01:58;;;;;;;3.02;0.80;;;;;;;19.48;38.29;99253.34;1694541;84;21054;-79
2021/05/21 12:04:30;;;;;;;1.62;0.68;;;;;;;19.61;40.16;99259.42;1694178;84;21042;-75
2021/05/21 12:06:56;;;;;;;1.30;0.60;;;;;;;19.79;39.52;99255.95;1689980;83;21659;-76
2021/05/21 12:09:23;;;;;;;2.17;0.50;;;;;;;19.81;38.88;99268.33;1692430;84;21606;-78
2021/05/21 12:11:54;;;;;;;8.18;0.70;;;;;;;19.73;37.86;99265.88;1689434;84;21094;-78
2021/05/21 12:14:27;;;;;;;5.28;0.72;;;;;;;19.59;37.43;99256.20;1677509;84;21082;-76
2021/05/21 12:16:57;;;;;;;2.10;0.50;;;;;;;19.52;37.20;99261.14;1690672;84;21541;-74
2021/05/21 12:19:26;;;;;;;1.32;0.60;;;;;;;19.49;37.49;99266.70;1691597;84;21129;-73
2021/05/21 12:21:56;;;;;;;1.45;1.07;;;;;;;19.56;37.44;99269.55;1689469;84;21058;-77
2021/05/21 12:24:26;;;;;;;1.32;0.70;;;;;;;19.63;36.77;99268.22;1692724;84;21074;-75
2021/05/21 12:26:54;;;;;;;0.60;0.50;;;;;;;19.74;36.36;99268.89;1687796;84;21118;-74
2021/05/21 12:29:22;;;;;;;2.58;0.80;;;;;;;19.79;34.85;99264.34;1691771;84;21057;-79
2021/05/21 12:31:52;;;;;;;3.40;0.80;;;;;;;19.82;35.14;99257.34;1696179;84;21562;-76
2021/05/21 12:34:20;;;;;;;3.25;0.50;;;;;;;19.93;35.37;99261.61;1692193;84;21542;-78
2021/05/21 12:37:06;;;;;;;0.78;0.60;;;;;;;20.09;37.35;99259.72;1695636;84;21010;-77
2021/05/21 12:39:43;;;;;;;4.00;1.98;;;;;;;20.28;36.19;99267.02;1691667;84;21023;-75
2021/05/21 12:42:16;;;;;;;1.07;0.70;;;;;;;20.17;34.55;99267.76;1690817;84;21058;-74
2021/05/21 12:44:50;;;;;;;0.93;0.60;;;;;;;20.15;34.38;99274.33;1691384;84;21655;-76
2021/05/21 12:47:18;;;;;;;1.55;0.75;;;;;;;20.22;34.48;99268.56;1689276;84;20955;-77
2021/05/21 12:49:47;;;;;;;6.58;1.55;;;;;;;20.18;34.30;99260.96;1669091;84;21070;-73
2021/05/21 12:52:13;;;;;;;0.93;0.80;;;;;;;20.13;34.85;99267.55;1687901;84;21550;-74
2021/05/21 12:54:47;;;;;;;1.07;0.70;;;;;;;20.08;34.63;99274.29;1693010;84;20935;-76
2021/05/21 12:57:18;;;;;;;1.85;0.57;;;;;;;20.08;34.72;99261.70;1692010;84;21790;-77
2021/05/21 12:59:55;;;;;;;2.83;0.70;;;;;;;20.23;34.93;99261.80;1695662;84;21617;-76
2021/05/21 13:02:29;;;;;;;3.00;0.55;;;;;;;20.33;34.41;99262.44;1692914;84;21561;-75
2021/05/21 13:05:13;;;;;;;1.85;0.65;;;;;;;20.36;34.13;99255.23;1686497;84;21070;-74
2021/05/21 13:07:41;;;;;;;5.25;0.68;;;;;;;20.37;34.75;99255.46;1678362;84;21062;-78
2021/05/21 13:10:16;;;;;;;5.45;2.10;;;;;;;20.41;34.97;99254.27;1694334;84;21621;-77
2021/05/21 13:12:52;;;;;;;2.50;0.70;;;;;;;20.30;33.55;99250.02;1686599;84;21046;-74
2021/05/21 13:15:27;;;;;;;6.58;0.45;;;;;;;20.16;34.27;99257.75;1694672;84;21029;-77
2021/05/21 13:18:13;;;;;;;1.30;0.47;;;;;;;20.13;33.75;99259.94;1694317;84;21081;-77
2021/05/21 13:20:34;;;;;;;4.10;0.70;;;;;;;20.00;33.17;99258.05;1690097;84;21164;-77
2021/05/21 13:23:09;;;;;;;12.60;1.72;;;;;;;19.89;33.34;99259.38;1690310;84;21078;-76
2021/05/21 13:25:50;;;;;;;6.92;1.47;;;;;;;19.82;33.25;99257.34;1697420;84;21082;-80
2021/05/21 13:28:19;;;;;;;12.07;1.37;;;;;;;19.79;33.51;99260.14;1686416;84;21050;-73
2021/05/21 13:30:46;;;;;;;2.77;0.70;;;;;;;19.81;34.59;99257.16;1689461;84;21054;-75
2021/05/21 14:02:50;;;;;;;1.12;0.45;;;;;;;19.73;34.54;99259.70;1523179;93;21093;-76
2021/05/21 14:05:17;;;;;;;4.58;1.07;;;;;;;19.57;34.50;99262.77;1604309;87;21071;-78
2021/05/21 14:07:43;;;;;;;6.85;0.93;;;;;;;19.36;33.40;99255.85;1716338;82;21648;-77
2021/05/21 14:10:11;;;;;;;5.33;0.85;;;;;;;19.12;34.86;99251.66;1722949;81;21082;-77
2021/05/21 14:12:38;;;;;;;4.35;0.62;;;;;;;19.05;34.74;99259.34;1724165;82;21071;-79
2021/05/21 14:15:07;;;;;;;0.80;0.62;;;;;;;18.97;35.36;99245.89;1722821;82;21663;-79
2021/05/21 14:17:34;;;;;;;8.55;1.35;;;;;;;19.03;35.40;99247.75;1711541;82;21047;-77
2021/05/21 14:20:01;;;;;;;2.45;1.22;;;;;;;19.07;34.08;99241.00;1718354;82;21517;-78
2021/05/21 14:22:27;;;;;;;10.82;1.87;;;;;;;19.04;34.77;99240.38;1722841;82;21083;-76
2021/05/21 14:24:55;;;;;;;1.30;1.20;;;;;;;19.01;35.35;99244.53;1725349;82;21119;-77
2021/05/21 14:27:21;;;;;;;1.62;0.90;;;;;;;18.80;35.91;99244.55;1718785;82;21599;-77
2021/05/21 14:29:49;;;;;;;4.40;0.80;;;;;;;18.70;35.33;99241.26;1723269;82;21047;-77
2021/05/21 14:32:16;;;;;;;4.40;3.00;;;;;;;18.65;35.76;99244.39;1725418;82;21051;-77
2021/05/21 14:34:42;;;;;;;1.52;0.95;;;;;;;18.58;35.54;99235.35;1722093;82;21074;-79
2021/05/21 14:37:09;;;;;;;2.47;1.30;;;;;;;18.55;36.11;99236.13;1722847;82;21147;-76
2021/05/21 14:39:36;;;;;;;4.22;1.60;;;;;;;18.63;36.68;99233.42;1725515;82;21091;-77
2021/05/21 14:42:03;;;;;;;1.82;0.50;;;;;;;18.77;37.04;99227.16;1721147;81;21641;-78
2021/05/21 14:44:30;;;;;;;3.10;0.90;;;;;;;18.93;36.61;99238.91;1723048;81;21083;-78
2021/05/21 14:46:58;;;;;;;16.12;1.20;;;;;;;18.95;35.88;99236.50;1724306;82;21078;-76
2021/05/21 14:49:26;;;;;;;2.75;0.80;;;;;;;18.85;35.43;99235.84;1723581;82;21080;-77
2021/05/21 14:51:53;;;;;;;4.92;0.95;;;;;;;18.78;35.31;99229.56;1722080;81;21023;-78
2021/05/21 14:54:20;;;;;;;10.80;1.10;;;;;;;18.77;35.47;99230.77;1724847;82;21118;-78
2021/05/21 14:56:46;;;;;;;1.42;0.75;;;;;;;18.75;35.70;99230.95;1724007;82;21545;-77
2021/05/21 14:59:13;;;;;;;0.62;0.60;;;;;;;18.73;35.35;99230.72;1723005;81;21149;-78
2021/05/21 15:01:39;;;;;;;2.92;1.10;;;;;;;18.71;35.07;99221.14;1741636;79;21584;-78
2021/05/21 15:04:07;;;;;;;12.13;1.12;;;;;;;18.72;35.29;99235.30;1767765;80;21072;-78
2021/05/21 15:06:34;;;;;;;8.08;1.50;;;;;;;18.69;35.93;99235.48;1766649;80;21088;-80
2021/05/21 15:09:04;;;;;;;1.35;0.72;;;;;;;18.64;36.42;99235.01;1768902;80;21063;-76
2021/05/21 15:11:33;;;;;;;3.37;0.93;;;;;;;18.52;35.71;99237.47;1710347;82;21091;-76
2021/05/21 15:14:02;;;;;;;7.47;1.40;;;;;;;18.42;35.91;99239.77;1711750;83;21076;-78
2021/05/21 15:16:46;;;;;;;2.10;0.78;;;;;;;18.42;37.00;99235.59;1735799;81;21554;-77
2021/05/21 15:23:59;;;;;;;13.90;1.90;;;;;;;18.41;36.83;99241.55;1772016;79;21105;-76
2021/05/21 15:24:37;;;;;;;7.03;1.92;;;;;;;18.45;36.61;99242.38;1774154;79;21082;-76
2021/05/21 15:27:00;;;;;;;5.83;1.20;;;;;;;18.41;36.24;99236.75;1775272;79;21070;-77
2021/05/21 15:29:27;;;;;;;6.47;0.60;;;;;;;18.37;36.39;99240.11;1775659;79;21040;-76
2021/05/21 15:31:53;;;;;;;1.02;0.65;;;;;;;18.40;36.19;99237.95;1710432;83;21541;-78
2021/05/21 15:34:21;;;;;;;3.72;0.88;;;;;;;18.44;35.43;99242.18;1712095;83;21086;-75
2021/05/21 15:36:49;;;;;;;2.02;0.62;;;;;;;18.39;35.52;99243.91;1733265;81;21103;-78
2021/05/21 15:39:18;;;;;;;54.98;3.47;;;;;;;18.35;35.77;99239.69;1775343;79;21135;-78
2021/05/21 15:47:17;;;;;;;6.78;1.17;;;;;;;18.53;36.20;99238.48;1773952;79;21048;-78
2021/05/21 15:49:49;;;;;;;1.00;0.72;;;;;;;18.59;35.14;99238.95;1772635;79;21202;-79
2021/05/21 15:54:49;;;;;;;3.40;0.65;;;;;;;18.60;35.29;99238.57;1775168;79;21045;-77
2021/05/21 15:57:16;;;;;;;4.28;0.70;;;;;;;18.79;35.46;99245.72;1768191;79;21040;-77
2021/05/21 15:59:42;;;;;;;1.70;0.68;;;;;;;18.98;35.20;99250.30;1708442;83;21056;-76
2021/05/21 16:02:08;;;;;;;0.75;0.70;;;;;;;19.01;34.98;99250.11;1739949;81;21085;-74
2021/05/21 16:04:35;;;;;;;1.75;0.90;;;;;;;18.97;35.63;99252.87;1717800;82;21030;-75
2021/05/21 16:07:01;;;;;;;2.45;0.70;;;;;;;18.97;36.89;99258.45;1719215;82;21125;-76
2021/05/21 16:09:33;;;;;;;6.03;0.80;;;;;;;18.95;36.29;99265.81;1717996;82;21024;-77
2021/05/21 16:12:01;;;;;;;0.87;0.50;;;;;;;18.83;36.40;99261.31;1716346;82;21555;-77
2021/05/21 16:14:28;;;;;;;1.55;0.70;;;;;;;18.71;37.64;99256.02;1712764;82;21068;-79
2021/05/21 16:16:55;;;;;;;2.10;1.15;;;;;;;18.62;37.37;99261.90;1718016;82;21604;-78
2021/05/21 16:19:22;;;;;;;1.67;0.85;;;;;;;18.54;37.44;99256.03;1719682;82;21573;-78
2021/05/21 16:21:50;;;;;;;1.65;0.90;;;;;;;18.44;36.74;99258.30;1712575;82;21117;-75
2021/05/21 16:24:18;;;;;;;4.05;1.02;;;;;;;18.36;36.61;99260.22;1717584;82;21582;-79
2021/05/21 16:26:44;;;;;;;3.45;0.70;;;;;;;18.31;36.70;99265.31;1719617;82;21662;-78
2021/05/21 16:29:12;;;;;;;1.17;0.50;;;;;;;18.21;36.06;99266.20;1717206;82;20996;-79
2021/05/21 16:31:39;;;;;;;6.47;0.80;;;;;;;18.14;36.44;99261.92;1716947;82;21067;-78
2021/05/21 16:34:06;;;;;;;2.70;0.70;;;;;;;18.10;37.13;99261.06;1719181;82;21129;-78
2021/05/21 16:36:35;;;;;;;3.42;0.90;;;;;;;18.05;37.42;99266.97;1714338;82;21079;-77
2021/05/21 16:39:05;;;;;;;1.72;0.80;;;;;;;17.98;37.70;99267.06;1715492;82;21874;-77
2021/05/21 16:41:34;;;;;;;1.20;0.80;;;;;;;17.96;37.71;99264.45;1715722;82;21561;-77
2021/05/21 16:44:00;;;;;;;11.70;1.52;;;;;;;17.88;38.41;99265.73;1716098;82;21604;-78
2021/05/21 16:46:27;;;;;;;4.67;1.17;;;;;;;17.80;39.61;99262.63;1719734;82;21055;-77
2021/05/21 16:48:53;;;;;;;14.87;1.30;;;;;;;17.70;39.97;99261.30;1715976;82;21613;-78
2021/05/21 16:51:22;;;;;;;5.03;1.32;;;;;;;17.64;42.77;99262.78;1716859;82;21077;-78
2021/05/21 16:53:50;;;;;;;2.70;0.85;;;;;;;17.55;41.99;99262.26;1712892;82;21080;-77
2021/05/21 16:56:16;;;;;;;3.47;1.15;;;;;;;17.42;40.80;99265.23;1718030;82;21082;-77
2021/05/21 16:58:44;;;;;;;1.90;1.40;;;;;;;17.36;41.69;99267.55;1718191;82;21036;-77
2021/05/21 17:01:13;;;;;;;2.70;0.75;;;;;;;17.28;43.04;99268.00;1713088;82;21072;-77
2021/05/21 17:03:41;;;;;;;5.97;0.60;;;;;;;17.23;42.19;99275.27;1704714;82;21107;-78
2021/05/21 17:06:10;;;;;;;1.77;0.70;;;;;;;17.11;41.82;99276.27;1706169;83;21069;-78
2021/05/21 17:08:37;;;;;;;7.33;0.90;;;;;;;16.99;43.71;99278.61;1705126;83;21062;-77
2021/05/21 17:11:08;;;;;;;4.22;1.10;;;;;;;16.94;45.92;99283.08;1702631;83;21646;-77
2021/05/21 17:13:42;;;;;;;5.12;0.78;;;;;;;16.85;45.16;99282.53;1701660;82;21048;-77
2021/05/21 17:16:11;;;;;;;1.98;0.90;;;;;;;16.72;43.87;99278.52;1689651;84;21555;-77
2021/05/21 17:21:20;;;;;;;1.15;0.95;;;;;;;16.57;48.27;99282.19;1709104;82;21089;-78
2021/05/21 17:40:06;;;;;;;3.80;1.67;;;;;;;16.17;52.11;99304.43;1753491;80;21030;-76
2021/05/21 17:42:32;;;;;;;3.37;1.30;;;;;;;16.02;52.71;99301.31;1757091;80;21104;-77
2021/05/21 17:47:41;;;;;;;1.32;1.17;;;;;;;15.69;50.71;99317.80;1757520;80;20977;-79
2021/05/21 17:53:10;;;;;;;6.37;1.20;;;;;;;15.51;52.66;99312.61;1760393;80;21053;-76
2021/05/21 17:55:54;;;;;;;5.08;1.67;;;;;;;15.47;53.35;99316.47;1759364;80;21112;-78
2021/05/21 18:08:30;;;;;;;9.53;3.00;;;;;;;15.15;54.82;99345.02;1763535;80;21257;-76
2021/05/21 18:17:09;;;;;;;11.97;3.27;;;;;;;14.94;55.37;99350.98;1761134;80;21267;-77
2021/05/21 18:22:17;;;;;;;19.80;3.20;;;;;;;14.91;56.25;99360.63;1764217;79;21033;-78
2021/05/21 18:24:45;;;;;;;14.98;4.35;;;;;;;14.75;57.44;99353.59;1762050;80;21508;-78
2021/05/21 18:41:52;;;;;;;15.03;5.33;;;;;;;14.48;58.34;99358.20;1721537;80;21579;-77
2021/05/21 19:01:45;;;;;;;27.15;9.40;;;;;;;13.92;60.16;99361.84;1694708;83;21861;-79
2021/05/21 19:04:08;;;;;;;21.00;9.70;;;;;;;13.85;59.98;99363.80;1692720;83;21135;-78
2021/05/21 19:09:22;;;;;;;37.58;13.10;;;;;;;13.74;60.54;99362.66;1765575;79;21079;-76
2021/05/21 19:11:56;;;;;;;41.35;12.75;;;;;;;13.68;60.74;99365.43;1763197;80;21006;-77
2021/05/21 19:19:18;;;;;;;33.67;14.15;;;;;;;13.38;62.68;99364.44;1756906;80;21093;-77
2021/05/21 19:21:46;;;;;;;33.83;15.93;;;;;;;13.33;63.38;99366.61;1763772;80;21104;-78
2021/05/21 19:24:13;;;;;;;35.08;15.75;;;;;;;13.28;63.89;99375.94;1764082;80;21092;-78
2021/05/21 19:26:41;;;;;;;30.25;16.45;;;;;;;13.24;63.86;99370.28;1761329;80;21103;-77
2021/05/21 19:32:04;;;;;;;35.98;14.98;;;;;;;13.17;63.76;99376.15;1762639;80;21089;-77
2021/05/21 19:35:31;;;;;;;40.52;14.55;;;;;;;13.10;64.16;99374.73;1757215;80;21045;-78
2021/05/21 19:37:31;;;;;;;36.75;13.83;;;;;;;13.07;64.27;99379.56;1740611;80;21049;-77
2021/05/21 19:53:44;;;;;;;30.52;10.75;;;;;;;12.70;66.24;99380.80;1757584;80;21112;-79
2021/05/21 20:03:00;;;;;;;22.58;10.28;;;;;;;12.60;66.43;99381.45;1756207;80;21037;-78
2021/05/21 20:13:26;;;;;;;32.53;12.60;;;;;;;12.18;67.23;99389.11;1759544;80;21155;-79
2021/05/21 20:15:58;;;;;;;21.35;9.65;;;;;;;12.19;67.32;99387.98;1760889;80;21010;-79
2021/05/21 20:18:28;;;;;;;25.23;12.18;;;;;;;12.20;67.22;99384.06;1753016;80;21079;-79
2021/05/21 20:20:55;;;;;;;24.37;11.70;;;;;;;12.21;67.17;99391.23;1760085;80;21614;-79
2021/05/21 20:23:22;;;;;;;32.13;12.50;;;;;;;12.21;67.28;99394.55;1757327;80;21061;-79
2021/05/21 20:25:56;;;;;;;36.63;13.70;;;;;;;12.19;67.39;99389.92;1759127;80;20953;-79
2021/05/21 20:28:25;;;;;;;40.40;12.33;;;;;;;12.16;67.85;99386.68;1759533;80;21065;-79
2021/05/21 20:31:07;;;;;;;32.98;13.48;;;;;;;12.16;67.84;99397.73;1757826;80;21659;-80
2021/05/21 20:39:07;;;;;;;34.45;9.78;;;;;;;12.13;67.82;99393.47;1758712;80;20938;-79
2021/05/21 20:44:00;;;;;;;26.15;9.78;;;;;;;12.07;67.87;99400.28;1759261;79;21612;-79
2021/05/21 21:07:43;;;;;;;15.38;6.90;;;;;;;11.78;69.09;99406.83;1762768;80;21033;-80
2021/05/21 21:10:16;;;;;;;14.98;7.10;;;;;;;11.76;68.99;99409.11;1759491;80;21111;-78
2021/05/21 21:20:58;;;;;;;21.90;8.00;;;;;;;11.65;69.04;99407.30;1705715;82;21165;-79
2021/05/21 21:38:56;;;;;;;25.62;9.30;;;;;;;11.30;70.68;99417.84;1771505;79;21051;-78
2021/05/21 21:52:08;;;;;;;15.00;6.62;;;;;;;11.25;70.78;99428.48;1774908;79;21064;-79
2021/05/21 21:54:58;;;;;;;15.13;6.10;;;;;;;11.22;70.91;99422.25;1767044;79;21544;-79
2021/05/21 22:00:05;;;;;;;13.90;7.00;;;;;;;11.16;71.10;99424.36;1772866;79;20990;-79
